Orono, ME

8:07 PM EST on March 05, 2015 (GMT -0500)
RAWS SUNKHAZE MEADOWS ME US | Change Station
CLOSE
Current Station
Personal Weather Station
Location: Milford, ME
Elevation: 49 ft
Nearby Weather Stations

Elev 49 ft 44.95 °N, 68.61 °W | Updated 36 minutes ago

Overcast
Overcast
13 °F
Feels Like 5 °F
N
5
Wind Variable Wind from NW
Gusts 10.0 mph

Today
High -- | Low -- °F
--% Chance of Precip.
Yesterday
High -- | Low -- °F
Precip. -- in
6:05 AM 5:27 PM
Full, 100% visible
Pressure 30.20 in
Visibility 10.0 miles
Clouds Mostly Cloudy 15000 ft
Windchill 5 °F
Dew Point -12 °F
Humidity 31%
Rainfall in
Snow Depth Not available.
UV 0 out of 12
Pollen .30 out of 12
Air Quality Not available.
Flu Activity Not available.
METAR KBGR 060053Z 31010KT 10SM BKN150 M11/M22 A3018 RMK AO2 SLP225 T11061222

More Conditions Fewer Conditions

Pressure 30.20 in
Visibility 10.0 miles
Clouds Mostly Cloudy 15000 ft
Windchill 5 °F
Dew Point -12 °F
Humidity 31%
Rainfall in
Snow Depth Not available.
UV 0 out of 12
Pollen .30 out of 12
Air Quality Not available.
Flu Activity Not available.
METAR KBGR 060053Z 31010KT 10SM BKN150 M11/M22 A3018 RMK AO2 SLP225 T11061222

More Conditions Fewer Conditions

10-Day Weather Forecast

Almanac

Astronomy

Mar. 05, 2015 Rise Set
Actual Time
Civil Twilight
Nautical Twilight
Astronomical Twilight
Moon
Length of Visible Light
Length of Day
Tomorrow will be .
, % of the Moon is Illuminated

Today's Extremes

State Highs State Lows

Community

WunderPhotos

Upload Photos

1,803,092 photos uploaded!

WunderBlogs® & News

Nearby

Air Quality

  Air Quality AQ Index Pollutant
Not available.

Snow Depth

Station Depth Elevation

Earthquake Activity

City Distance Mag. Time & Date
Minimum magnitude displayed is 2.5.

Coastal Water Temperatures

Place Temperature

Nearby Weather Stations